Hillsboro, New Mexico
Current Conditions -  °F | °C
As of 2:53 AM on Saturday 22 Nov 2014 (Local Time) from KTCS Reporting Station
Clear Clear  
Wind Chill: 42°   Ceiling: Unl
Heat Index: 44°   Visibility: 10mi
Dew Point: 23°   Wind: 5mph
Humidity: 43%   Direction: 340°NNW
Pressure: 30.04"   Gusts: NA
Location:  32.92°N, 107.57°W
Report Text: KTCS 220953Z AUTO 34004KT 10SM CLR 07/M05 A3004 RMK AO2 SLP131 T00671050 TSNO
Loading
Personal Weather Stations






























Interactive Weather Map New forecast layout! Learn more

10-Day Weather Forecast

Advertisements
Track Severe Weather on mobile